WetterOnline ( https://www.wetteronline.de )

Wetter aktuell Andernach

Aktuelles Wetter: Andernach (75m)

6-stündlich | Neueste Meldungen
Ortszeit Temperatur Wetter
Mi, 12.08. 20:00 21.3° C leichter Regen
Mi, 12.08. 14:00 31.2° C wolkenlos
Mi, 12.08. 8:00 21.0° C bewölkt
Mi, 12.08. 2:00 21.7° C bewölkt
Di, 11.08. 20:00 25.7° C Regen
Di, 11.08. 14:00 31.9° C bedeckt
Di, 11.08. 8:00 22.0° C leicht bewölkt
Di, 11.08. 2:00 23.1° C wolkenlos
Ortszeit Temperatur Wetter
Mi, 12.08. 22:00 21.4° C wolkig
Mi, 12.08. 21:40 21.2° C Sprühregen
Mi, 12.08. 21:30 21.2° C leichter Regen
Mi, 12.08. 21:20 21.2° C leichter Regen
Mi, 12.08. 21:10 21.3° C leichter Regen
Mi, 12.08. 21:00 21.4° C Regen
Mi, 12.08. 20:50 21.4° C leichter Regen
Mi, 12.08. 20:30 21.3° C leichter Regen
Mi, 12.08. 20:00 21.3° C leichter Regen
Mi, 12.08. 19:30 -° C leichter Regen
Mi, 12.08. 19:00 -° C wolkig
Mi, 12.08. 18:30 -° C bewölkt
Ortszeit Relative Feuchte Sichtweite
Mi, 12.08. 20:00 88% 35 km
Mi, 12.08. 14:00 45% 40 km
Mi, 12.08. 8:00 95% 8 km
Mi, 12.08. 2:00 88% 22 km
Di, 11.08. 20:00 63% 25 km
Di, 11.08. 14:00 40% 35 km
Di, 11.08. 8:00 76% 22 km
Di, 11.08. 2:00 70% 35 km
Ortszeit Relative Feuchte Sichtweite
Mi, 12.08. 22:00 88% 30 km
Mi, 12.08. 21:40 89% -
Mi, 12.08. 21:30 89% 25 km
Mi, 12.08. 21:20 89% -
Mi, 12.08. 21:10 88% -
Mi, 12.08. 21:00 88% 35 km
Mi, 12.08. 20:50 88% -
Mi, 12.08. 20:30 86% 35 km
Mi, 12.08. 20:00 88% 35 km
Mi, 12.08. 19:30 - 30 km
Mi, 12.08. 19:00 - 45 km
Mi, 12.08. 18:30 - 40 km
Ortszeit Niederschlagsmenge Niederschlagsart
Mi, 12.08. 20:00 0.6 l/m2 in 12 Std. Regen
Mi, 12.08. 14:00 0.0 l/m2 in 6 Std. -
Mi, 12.08. 8:00 21 l/m2 in 12 Std. -
Mi, 12.08. 2:00 21 l/m2 in 6 Std. Regenschauer
Di, 11.08. 20:00 0.1 l/m2 in 12 Std. Regen
Di, 11.08. 14:00 0.1 l/m2 in 6 Std. Regen
Di, 11.08. 8:00 0.0 l/m2 in 12 Std. -
Di, 11.08. 2:00 0.0 l/m2 in 6 Std. -
Ortszeit Niederschlagsmenge Niederschlagsart
Mi, 12.08. 22:00 0.2 l/m2 in 1 Std. Regen
Mi, 12.08. 21:40 keine Meldung -
Mi, 12.08. 21:30 0.1 l/m2 in 1 Std. -
Mi, 12.08. 21:20 keine Meldung -
Mi, 12.08. 21:10 keine Meldung -
Mi, 12.08. 21:00 0.4 l/m2 in 1 Std. Regen
Mi, 12.08. 20:50 keine Meldung -
Mi, 12.08. 20:30 0.1 l/m2 in 1 Std. -
Mi, 12.08. 20:00 0.6 l/m2 in 1 Std. Regen
Mi, 12.08. 19:30 0.3 l/m2 in 1 Std. -
Mi, 12.08. 19:00 0.1 l/m2 in 1 Std. Regen
Mi, 12.08. 18:30 0.1 l/m2 in 1 Std. Schnee
Ortszeit Stärke Spitze Richtung
km/h Bft. km/h Grad Sektor
Mi, 12.08. 20:00 14 3 54 320° NW
Mi, 12.08. 14:00 11 2 25 130° SO
Mi, 12.08. 8:00 4 1 14 310° NW
Mi, 12.08. 2:00 7 2 47 330° NW
Di, 11.08. 20:00 25 4 43 250° W
Di, 11.08. 14:00 7 2 22 150° SO
Di, 11.08. 8:00 0 0 11 - -
Di, 11.08. 2:00 4 1 22 300° NW
Ortszeit Stärke Spitze Richtung
km/h Bft. km/h Grad Sektor
Mi, 12.08. 22:00 4 1 14 270° W
Mi, 12.08. 21:40 4 1 - 210° SW
Mi, 12.08. 21:30 7 2 14 60° NO
Mi, 12.08. 21:20 7 2 - 60° NO
Mi, 12.08. 21:10 7 2 - 120° SO
Mi, 12.08. 21:00 6 1 22 360° N
Mi, 12.08. 20:50 6 1 - 360° N
Mi, 12.08. 20:30 9 2 22 330° NW
Mi, 12.08. 20:00 14 3 50 320° NW
Mi, 12.08. 19:30 22 4 50 310° NW
Mi, 12.08. 19:00 18 3 54 320° NW
Mi, 12.08. 18:30 20 4 52 160° S
Ortszeit Untergrenze Bedeckung Gattung
total tief tief mittel hoch
Mi, 12.08. 20:00 1500 m 8/8 2/8 - - -
Mi, 12.08. 14:00 - 0/8 0/8 - - -
Mi, 12.08. 8:00 2700 m 7/8 7/8 - - -
Mi, 12.08. 2:00 2700 m 8/8 7/8 - - -
Di, 11.08. 20:00 1230 m 7/8 7/8 - - -
Di, 11.08. 14:00 4500 m 8/8 8/8 - - -
Di, 11.08. 8:00 10500 m 3/8 0/8 - - -
Di, 11.08. 2:00 - 0/8 0/8 - - -
Ortszeit Bedeckungsgrad in Achtel und Wolkenuntergrenze
Mi, 12.08. 22:00 1(2400m) 3(3300m) 8(3900m)
Mi, 12.08. 21:40 2(2400m) 8(3600m)
Mi, 12.08. 21:30 7(3300m) 7(4200m) 8(4200m)
Mi, 12.08. 21:20 7(3300m) 7(4200m)
Mi, 12.08. 21:10 1(2400m) 7(3300m) 7(4200m)
Mi, 12.08. 21:00 4(3600m) 7(4200m)
Mi, 12.08. 20:50 4(3600m) 7(4200m)
Mi, 12.08. 20:30 1(2400m) 7(3300m) 7(4200m)
Mi, 12.08. 20:00 2(1500m) 7(3600m) 8(4200m)
Mi, 12.08. 19:30 8(3900m)
Mi, 12.08. 19:00 1(2400m) 8(4800m)
Mi, 12.08. 18:30 7(2100m) 7(3300m) 7(4500m)
Ortszeit Luftdruck NN (hPa) Tendenz (hPa in 3 Std.)
Mi, 12.08. 20:00 1014 + 2,3
Mi, 12.08. 14:00 1014 - 1,4
Mi, 12.08. 8:00 1016 + 0,7
Mi, 12.08. 2:00 1015 - 1,1
Di, 11.08. 20:00 1015 + 2,1
Di, 11.08. 14:00 1014 - 0,8
Di, 11.08. 8:00 1015 + 0,6
Di, 11.08. 2:00 1015 + 0,7
Ortszeit Luftdruck NN (hPa) Tendenz (hPa in 3 Std.)
Mi, 12.08. 22:00 1015 + 1,2
Mi, 12.08. 21:40 1015 keine Meldung
Mi, 12.08. 21:30 1015 + 2,8
Mi, 12.08. 21:20 1015 keine Meldung
Mi, 12.08. 21:10 1014 keine Meldung
Mi, 12.08. 21:00 1015 + 3,2
Mi, 12.08. 20:50 1015 keine Meldung
Mi, 12.08. 20:30 1014 + 2,4
Mi, 12.08. 20:00 1014 + 2,3
Mi, 12.08. 19:30 1014 + 1,8
Mi, 12.08. 19:00 1014 + 1,2
Mi, 12.08. 18:30 1012 - 0,8
Ortszeit Schneehöhe (cm)
Mi, 12.08. 20:00 -
Mi, 12.08. 14:00 -
Mi, 12.08. 8:00 -
Mi, 12.08. 2:00 -
Di, 11.08. 20:00 -
Di, 11.08. 14:00 -
Di, 11.08. 8:00 -
Di, 11.08. 2:00 -
Ortszeit Schneehöhe (cm)
Mi, 12.08. 22:00 -
Mi, 12.08. 21:40 -
Mi, 12.08. 21:30 -
Mi, 12.08. 21:20 -
Mi, 12.08. 21:10 -
Mi, 12.08. 21:00 -
Mi, 12.08. 20:50 -
Mi, 12.08. 20:30 -
Mi, 12.08. 20:00 -
Mi, 12.08. 19:30 -
Mi, 12.08. 19:00 -
Mi, 12.08. 18:30 -
Link zu dieser Seite / Seite empfehlen

Das Wetter in ...